Time;durP1;ratioP1;P1;durP2;ratioP2;P2;SDS_P1;SDS_P2;PMS_P1;PMS_P2;Temp;Humidity;BMP_temperature;BMP_pressure;BME280_temperature;BME280_humidity;BME280_pressure;Samples;Min_cycle;Max_cycle;Signal;HPM_P1;HPM_P2
2023/02/23 00:01:41;;;;;;;56.70;34.00;;;9.80;99.90;;;;;;5062293;28;20037;-44
2023/02/23 00:04:07;;;;;;;65.78;37.00;;;9.80;99.90;;;;;;5061611;28;20017;-44
2023/02/23 00:06:34;;;;;;;60.13;36.08;;;9.80;99.90;;;;;;5061404;28;20027;-43
2023/02/23 01:13:02;;;;;;;53.97;31.55;;;9.70;99.90;;;;;;5053786;28;20047;-43
2023/02/23 01:15:28;;;;;;;57.17;31.92;;;9.60;99.90;;;;;;5075891;28;20494;-43
2023/02/23 01:17:53;;;;;;;51.05;31.60;;;9.70;99.90;;;;;;5060312;28;20025;-43
2023/02/23 01:20:19;;;;;;;52.10;31.98;;;9.70;99.90;;;;;;5060069;28;20064;-43
2023/02/23 01:22:47;;;;;;;58.28;33.78;;;9.70;99.90;;;;;;5060535;28;20128;-44
2023/02/23 01:25:15;;;;;;;58.35;33.70;;;9.70;99.90;;;;;;5061135;28;20074;-43
2023/02/23 01:27:42;;;;;;;55.35;34.15;;;9.70;99.90;;;;;;5058807;28;20032;-43
2023/02/23 01:30:10;;;;;;;55.75;33.25;;;9.70;99.90;;;;;;5061183;28;20048;-43
2023/02/23 01:32:37;;;;;;;55.47;33.53;;;9.70;99.90;;;;;;5060166;28;20058;-42
2023/02/23 01:35:08;;;;;;;56.08;33.92;;;9.70;99.90;;;;;;5060714;28;20024;-44
2023/02/23 01:37:41;;;;;;;57.15;33.10;;;9.80;99.90;;;;;;5060409;28;20060;-43
2023/02/23 01:40:14;;;;;;;54.85;34.22;;;9.80;99.90;;;;;;5060602;28;20677;-43
2023/02/23 01:42:45;;;;;;;56.78;33.88;;;9.80;99.90;;;;;;5059508;28;20173;-43
2023/02/23 01:45:34;;;;;;;58.67;35.15;;;9.80;99.90;;;;;;5040707;28;20045;-43
2023/02/23 01:48:12;;;;;;;46.10;29.35;;;9.80;99.90;;;;;;5057145;28;20452;-42
2023/02/23 01:50:51;;;;;;;56.03;32.92;;;9.80;99.90;;;;;;5059988;28;20036;-43
2023/02/23 01:53:26;;;;;;;58.65;35.22;;;9.70;99.90;;;;;;5060392;28;20078;-43
2023/02/23 01:56:18;;;;;;;67.82;40.05;;;9.60;99.90;;;;;;5059025;28;20547;-44
2023/02/23 01:58:53;;;;;;;64.07;37.33;;;9.60;99.90;;;;;;5058200;28;20020;-43
2023/02/23 02:01:20;;;;;;;68.32;40.35;;;9.50;99.90;;;;;;5060578;28;20040;-43
2023/02/23 02:04:15;;;;;;;58.60;35.85;;;9.50;99.90;;;;;;5050495;28;20435;-43
2023/02/23 02:06:44;;;;;;;62.30;36.67;;;9.40;99.90;;;;;;5037612;28;20072;-42
2023/02/23 02:09:17;;;;;;;53.42;33.53;;;9.40;99.90;;;;;;5050403;28;20463;-43
2023/02/23 02:11:45;;;;;;;59.08;36.25;;;9.40;99.90;;;;;;5039580;28;20018;-43
2023/02/23 02:14:29;;;;;;;55.17;34.40;;;9.40;99.90;;;;;;5051677;28;20061;-43
2023/02/23 02:17:21;;;;;;;58.53;35.05;;;9.40;99.90;;;;;;5039101;28;20116;-42
2023/02/23 02:20:30;;;;;;;51.90;32.20;;;9.40;99.90;;;;;;5057302;28;20028;-43
2023/02/23 02:23:35;;;;;;;47.13;28.15;;;9.40;99.90;;;;;;5058522;28;20135;-42
2023/02/23 02:26:15;;;;;;;48.50;28.55;;;9.40;99.90;;;;;;5059283;28;20058;-42
2023/02/23 02:28:55;;;;;;;49.42;30.83;;;9.40;99.90;;;;;;5057895;28;20082;-43
2023/02/23 02:32:12;;;;;;;51.30;31.05;;;9.40;99.90;;;;;;5059630;28;20039;-43
2023/02/23 02:35:07;;;;;;;45.85;28.33;;;9.40;99.90;;;;;;5024396;28;20032;-43
2023/02/23 02:37:38;;;;;;;45.83;29.40;;;9.50;99.90;;;;;;5059310;28;20035;-42
2023/02/23 02:40:17;;;;;;;49.58;30.55;;;9.50;99.90;;;;;;5059273;28;20090;-42
2023/02/23 02:43:10;;;;;;;51.95;31.88;;;9.40;99.90;;;;;;5059819;28;20464;-42
2023/02/23 02:45:53;;;;;;;57.30;35.00;;;9.40;99.90;;;;;;5058220;28;20839;-43
2023/02/23 02:48:38;;;;;;;63.03;38.00;;;9.40;99.90;;;;;;5059778;28;20032;-43
2023/02/23 02:51:16;;;;;;;59.50;36.33;;;9.40;99.90;;;;;;5048927;28;20020;-43
2023/02/23 02:53:49;;;;;;;56.42;33.75;;;9.30;99.90;;;;;;5059602;28;20052;-43
2023/02/23 02:56:18;;;;;;;62.03;37.83;;;9.30;99.90;;;;;;5052812;28;20032;-44
2023/02/23 02:58:45;;;;;;;63.22;38.30;;;9.30;99.90;;;;;;5062008;28;20017;-43
2023/02/23 04:18:53;;;;;;;47.55;27.92;;;9.30;99.90;;;;;;5061221;28;20024;-42
2023/02/23 04:21:21;;;;;;;47.17;28.35;;;9.30;99.90;;;;;;5061591;28;20047;-43
2023/02/23 04:23:47;;;;;;;51.22;31.08;;;9.20;99.90;;;;;;5060381;28;20036;-43
2023/02/23 04:26:13;;;;;;;45.33;27.98;;;9.20;99.90;;;;;;5061907;28;20020;-43
2023/02/23 04:28:38;;;;;;;46.83;28.65;;;9.20;99.90;;;;;;5060952;28;20044;-42
2023/02/23 04:31:04;;;;;;;50.60;30.00;;;9.20;99.90;;;;;;5061435;28;20028;-42
2023/02/23 04:33:29;;;;;;;49.05;29.80;;;9.20;99.90;;;;;;5061079;28;20039;-42
2023/02/23 04:35:55;;;;;;;46.38;29.35;;;9.20;99.90;;;;;;5060183;28;20036;-43
2023/02/23 04:38:21;;;;;;;46.75;28.30;;;9.20;99.90;;;;;;5060929;28;20033;-42
2023/02/23 04:40:47;;;;;;;49.50;30.13;;;9.20;99.90;;;;;;5061272;28;20060;-43
2023/02/23 04:43:14;;;;;;;46.47;28.73;;;9.20;99.90;;;;;;5061758;28;20135;-44
2023/02/23 04:45:40;;;;;;;49.17;29.08;;;9.20;99.90;;;;;;5061315;28;20028;-43
2023/02/23 04:48:06;;;;;;;49.42;31.05;;;9.20;99.90;;;;;;5061735;28;20025;-43
2023/02/23 04:50:32;;;;;;;50.58;30.45;;;9.20;99.90;;;;;;5060802;28;20119;-43
2023/02/23 04:52:58;;;;;;;51.28;30.73;;;9.20;99.90;;;;;;5060483;28;20038;-43
2023/02/23 04:55:25;;;;;;;49.58;29.90;;;9.20;99.90;;;;;;5061897;28;20121;-42
2023/02/23 04:57:58;;;;;;;56.00;34.15;;;9.20;99.90;;;;;;5060434;28;20039;-43
2023/02/23 05:00:32;;;;;;;57.85;33.22;;;9.20;99.90;;;;;;5050615;28;20396;-43
2023/02/23 05:02:58;;;;;;;52.90;33.42;;;9.20;99.90;;;;;;5060648;28;20472;-43
2023/02/23 05:05:24;;;;;;;54.28;32.20;;;9.20;99.90;;;;;;5061025;28;20154;-42
2023/02/23 05:07:49;;;;;;;50.40;30.88;;;9.20;99.90;;;;;;5060968;28;20032;-43
2023/02/23 05:10:15;;;;;;;45.90;28.25;;;9.20;99.90;;;;;;5057488;28;20135;-43
2023/02/23 05:12:41;;;;;;;48.22;29.73;;;9.20;99.90;;;;;;5059395;28;20063;-43
2023/02/23 05:15:07;;;;;;;50.00;30.67;;;9.20;99.90;;;;;;5060951;28;20423;-43
2023/02/23 05:17:32;;;;;;;44.67;27.88;;;9.20;99.90;;;;;;5059771;28;20063;-42
2023/02/23 05:19:58;;;;;;;51.67;31.83;;;9.20;99.90;;;;;;5058590;28;20481;-44
2023/02/23 05:22:23;;;;;;;51.90;31.75;;;9.10;99.90;;;;;;5060953;28;20047;-43
2023/02/23 05:24:49;;;;;;;50.42;30.92;;;9.10;99.90;;;;;;5059684;28;20032;-43
2023/02/23 05:27:14;;;;;;;50.75;30.77;;;9.10;99.90;;;;;;5059924;28;20028;-43
2023/02/23 05:29:40;;;;;;;50.78;31.25;;;9.10;99.90;;;;;;5059790;28;20123;-43
2023/02/23 05:32:08;;;;;;;51.58;30.65;;;9.10;99.90;;;;;;5060437;28;20021;-43
2023/02/23 05:34:34;;;;;;;50.70;30.20;;;9.00;99.90;;;;;;5059584;28;20028;-43
2023/02/23 05:36:59;;;;;;;48.00;29.15;;;9.00;99.90;;;;;;5060332;28;20024;-43
2023/02/23 05:39:25;;;;;;;48.72;29.90;;;9.00;99.90;;;;;;5060120;28;20522;-43
2023/02/23 05:41:53;;;;;;;48.42;29.13;;;9.10;99.90;;;;;;5058949;28;20491;-43
2023/02/23 05:44:19;;;;;;;45.97;28.88;;;9.10;99.90;;;;;;5060131;28;20030;-42
2023/02/23 05:46:46;;;;;;;47.88;29.02;;;9.10;99.90;;;;;;5058944;28;20028;-43
2023/02/23 05:49:12;;;;;;;48.30;29.95;;;9.10;99.90;;;;;;5059822;28;20036;-43
2023/02/23 05:51:38;;;;;;;50.72;30.27;;;9.10;99.90;;;;;;5059478;28;20035;-43
2023/02/23 05:54:04;;;;;;;48.40;29.88;;;9.10;99.90;;;;;;5060226;28;20020;-42
2023/02/23 05:56:32;;;;;;;54.05;32.67;;;9.20;99.90;;;;;;5060243;28;20032;-44
2023/02/23 05:58:58;;;;;;;46.17;29.48;;;9.20;99.90;;;;;;5060187;28;20504;-42
2023/02/23 06:01:25;;;;;;;49.75;31.00;;;9.20;99.90;;;;;;5059644;28;20127;-43
2023/02/23 06:03:50;;;;;;;50.08;30.45;;;9.20;99.90;;;;;;5059711;28;20045;-43
2023/02/23 06:06:17;;;;;;;48.15;29.42;;;9.20;99.90;;;;;;5059878;28;20071;-42
2023/02/23 06:08:43;;;;;;;49.17;28.10;;;9.20;99.90;;;;;;5058980;28;20111;-43
2023/02/23 06:11:09;;;;;;;47.85;28.98;;;9.20;99.90;;;;;;5060263;28;20048;-43
2023/02/23 06:13:37;;;;;;;50.47;28.33;;;9.20;99.90;;;;;;5058853;28;20080;-43
2023/02/23 06:16:03;;;;;;;48.35;29.58;;;9.10;99.90;;;;;;5058934;28;20024;-44
2023/02/23 06:18:29;;;;;;;46.47;28.40;;;9.10;99.90;;;;;;5059683;28;20384;-43
2023/02/23 06:20:58;;;;;;;46.47;28.33;;;9.10;99.90;;;;;;5058593;28;20182;-44
2023/02/23 06:23:24;;;;;;;48.97;29.65;;;9.10;99.90;;;;;;5059677;28;20028;-43
2023/02/23 06:25:49;;;;;;;48.53;29.13;;;9.10;99.90;;;;;;5058788;28;20459;-44
2023/02/23 06:28:15;;;;;;;47.65;29.45;;;9.10;99.90;;;;;;5059811;28;20060;-42
2023/02/23 06:30:41;;;;;;;48.83;29.38;;;9.10;99.90;;;;;;5061040;28;20032;-44
2023/02/23 06:33:07;;;;;;;49.85;29.65;;;9.10;99.90;;;;;;5063832;28;20388;-43
2023/02/23 06:35:36;;;;;;;50.97;31.85;;;9.10;99.90;;;;;;5063868;28;20028;-41
2023/02/23 06:38:03;;;;;;;41.13;25.92;;;9.10;99.90;;;;;;5062732;28;20761;-43
2023/02/23 06:40:31;;;;;;;51.50;31.77;;;9.10;99.90;;;;;;5063872;28;20024;-42
2023/02/23 06:42:57;;;;;;;43.15;27.35;;;9.00;99.90;;;;;;5062020;28;20120;-43
2023/02/23 06:45:22;;;;;;;45.90;28.02;;;9.00;99.90;;;;;;5063933;28;20058;-43
2023/02/23 06:47:48;;;;;;;50.58;30.88;;;9.00;99.90;;;;;;5063073;28;20543;-43
2023/02/23 06:50:14;;;;;;;47.83;29.45;;;8.90;99.90;;;;;;5062912;28;20439;-42
2023/02/23 06:52:40;;;;;;;54.95;32.15;;;8.90;99.90;;;;;;5063506;28;20119;-42
2023/02/23 06:55:07;;;;;;;51.70;30.42;;;8.90;99.90;;;;;;5052589;28;20037;-42
2023/02/23 06:57:33;;;;;;;49.45;29.75;;;8.90;99.90;;;;;;5052015;28;20395;-43
2023/02/23 07:00:01;;;;;;;47.40;29.25;;;8.90;99.90;;;;;;5063173;28;20498;-44
2023/02/23 07:02:27;;;;;;;47.63;28.05;;;8.90;99.90;;;;;;5059899;28;20697;-43
2023/02/23 07:04:52;;;;;;;49.90;28.58;;;8.90;99.90;;;;;;5060890;28;20033;-43
2023/02/23 07:07:18;;;;;;;46.13;28.60;;;9.00;99.90;;;;;;5062158;28;20028;-42
2023/02/23 07:09:43;;;;;;;47.63;27.83;;;9.00;99.90;;;;;;5061677;28;20143;-43
2023/02/23 07:12:10;;;;;;;47.08;27.50;;;9.00;99.90;;;;;;5061492;28;20036;-43
2023/02/23 07:14:38;;;;;;;44.17;27.60;;;9.00;99.90;;;;;;5061806;28;20135;-43
2023/02/23 07:17:04;;;;;;;44.65;27.38;;;9.00;99.90;;;;;;5062504;28;20557;-43
2023/02/23 07:19:34;;;;;;;48.20;29.35;;;9.00;99.90;;;;;;5062214;28;20135;-42
2023/02/23 07:21:59;;;;;;;52.33;33.25;;;9.00;99.90;;;;;;5062177;28;20036;-43
2023/02/23 07:24:26;;;;;;;53.22;32.38;;;8.90;99.90;;;;;;5061674;28;20035;-44
2023/02/23 07:26:55;;;;;;;54.15;32.67;;;8.90;99.90;;;;;;5061416;28;20563;-42
2023/02/23 07:29:24;;;;;;;49.25;31.13;;;8.80;99.90;;;;;;5062260;28;20673;-42
2023/02/23 07:31:49;;;;;;;41.40;26.00;;;8.80;99.90;;;;;;5055284;28;20349;-43
2023/02/23 07:34:15;;;;;;;45.63;28.15;;;8.80;99.90;;;;;;5055953;28;20118;-43
2023/02/23 07:36:40;;;;;;;39.95;24.75;;;8.90;99.90;;;;;;5062379;28;20067;-43
2023/02/23 07:39:06;;;;;;;40.92;25.33;;;8.90;99.90;;;;;;5062465;28;20078;-43
2023/02/23 07:41:32;;;;;;;48.08;29.15;;;8.90;99.90;;;;;;5061641;28;20036;-43
2023/02/23 07:43:58;;;;;;;45.85;27.48;;;8.90;99.90;;;;;;5060513;28;20674;-43
2023/02/23 07:46:24;;;;;;;45.97;27.38;;;8.90;99.90;;;;;;5061841;28;20109;-43
2023/02/23 07:48:50;;;;;;;43.22;27.58;;;8.90;99.90;;;;;;5061644;28;20020;-43
2023/02/23 07:51:16;;;;;;;45.60;27.38;;;8.90;99.90;;;;;;5062174;28;20365;-43
2023/02/23 07:53:43;;;;;;;41.83;25.73;;;8.90;99.90;;;;;;5060701;28;20027;-43
2023/02/23 07:56:12;;;;;;;47.03;28.85;;;8.90;99.90;;;;;;5062678;28;20017;-44
2023/02/23 07:58:39;;;;;;;42.97;26.40;;;8.90;99.90;;;;;;5061385;28;20086;-43
2023/02/23 08:01:05;;;;;;;45.85;29.15;;;8.90;99.90;;;;;;5061030;28;20034;-43
2023/02/23 08:03:31;;;;;;;45.38;27.42;;;9.00;99.90;;;;;;5061468;28;20113;-42
2023/02/23 08:05:57;;;;;;;47.55;27.40;;;9.00;99.90;;;;;;5060600;28;20020;-44
2023/02/23 08:08:23;;;;;;;43.83;27.35;;;9.00;99.90;;;;;;5061065;28;20028;-43
2023/02/23 08:10:49;;;;;;;48.80;30.13;;;9.00;99.90;;;;;;5061268;28;20037;-44
2023/02/23 08:13:15;;;;;;;44.50;26.95;;;9.10;99.90;;;;;;5061334;28;20517;-43
2023/02/23 08:15:41;;;;;;;47.45;27.80;;;9.10;99.90;;;;;;5059915;28;20064;-43
2023/02/23 08:18:07;;;;;;;41.97;25.73;;;9.10;99.90;;;;;;5062047;28;20127;-43
2023/02/23 08:20:33;;;;;;;43.38;26.63;;;9.10;99.90;;;;;;5061737;28;20024;-43
2023/02/23 08:22:58;;;;;;;42.17;26.55;;;9.10;99.90;;;;;;5060687;28;20039;-44
2023/02/23 08:25:26;;;;;;;49.38;28.52;;;9.10;99.90;;;;;;5061646;28;20044;-45
2023/02/23 08:27:52;;;;;;;48.13;28.40;;;9.10;99.90;;;;;;5060803;28;20024;-43
2023/02/23 08:30:20;;;;;;;43.22;25.95;;;9.10;99.90;;;;;;5057244;28;20067;-43
2023/02/23 08:32:46;;;;;;;45.42;27.35;;;9.10;99.90;;;;;;5050050;28;20079;-43
2023/02/23 08:35:13;;;;;;;46.70;26.73;;;9.20;99.90;;;;;;5042453;28;20024;-44
2023/02/23 08:37:40;;;;;;;49.30;29.35;;;9.20;99.90;;;;;;5051785;28;20028;-44
2023/02/23 08:40:07;;;;;;;44.72;26.70;;;9.20;99.90;;;;;;5042757;28;20212;-44
2023/02/23 08:42:33;;;;;;;42.38;26.30;;;9.20;99.90;;;;;;5051051;28;20171;-44
2023/02/23 08:45:00;;;;;;;46.58;28.42;;;9.20;99.90;;;;;;5041277;28;20337;-43
2023/02/23 08:47:26;;;;;;;45.03;27.13;;;9.20;99.90;;;;;;5053278;28;20067;-44
2023/02/23 08:49:55;;;;;;;47.38;27.67;;;9.30;99.90;;;;;;5039263;28;20159;-44
2023/02/23 08:52:27;;;;;;;45.85;27.10;;;9.30;99.90;;;;;;5053053;28;20063;-43
2023/02/23 08:54:54;;;;;;;42.83;24.80;;;9.40;99.90;;;;;;5038942;28;20040;-43
2023/02/23 08:57:20;;;;;;;42.38;25.73;;;9.40;99.90;;;;;;5052698;28;20020;-43
2023/02/23 08:59:46;;;;;;;43.78;25.77;;;9.50;99.90;;;;;;5040702;28;20301;-43
2023/02/23 09:02:13;;;;;;;45.38;27.40;;;9.60;99.90;;;;;;5058617;28;20491;-44
2023/02/23 09:04:41;;;;;;;49.25;30.08;;;9.60;99.90;;;;;;5059171;28;20056;-43
2023/02/23 09:07:13;;;;;;;54.22;32.20;;;9.50;99.90;;;;;;5060887;28;20051;-44
2023/02/23 09:09:39;;;;;;;54.88;33.67;;;9.40;99.90;;;;;;5060785;28;20056;-44
2023/02/23 09:12:04;;;;;;;51.70;31.75;;;9.40;99.90;;;;;;5060514;28;20059;-44
2023/02/23 09:14:31;;;;;;;51.05;30.63;;;9.40;99.90;;;;;;5060802;28;20055;-43
2023/02/23 09:16:59;;;;;;;51.50;30.45;;;9.30;99.90;;;;;;5060493;28;20541;-43
2023/02/23 09:19:26;;;;;;;55.80;31.75;;;9.30;99.90;;;;;;5061341;28;20060;-44
2023/02/23 09:21:52;;;;;;;53.15;33.05;;;9.30;99.90;;;;;;5059621;28;20067;-43
2023/02/23 09:24:20;;;;;;;53.20;30.75;;;9.30;99.90;;;;;;5058828;28;20547;-43
2023/02/23 09:26:46;;;;;;;47.50;28.85;;;9.30;99.90;;;;;;5056502;28;20035;-43
2023/02/23 09:29:12;;;;;;;47.22;28.70;;;9.40;99.90;;;;;;5060227;28;20977;-43
2023/02/23 09:31:38;;;;;;;49.17;29.83;;;9.50;99.90;;;;;;5059883;28;20101;-43
2023/02/23 09:34:03;;;;;;;52.42;31.38;;;9.50;99.90;;;;;;5059471;28;20017;-43
2023/02/23 09:36:30;;;;;;;44.88;26.80;;;9.50;99.90;;;;;;5059651;28;20039;-44
2023/02/23 09:38:56;;;;;;;41.05;25.45;;;9.60;99.90;;;;;;5058368;28;20101;-43
2023/02/23 09:41:25;;;;;;;43.85;27.13;;;9.70;99.90;;;;;;5060307;28;20071;-43
2023/02/23 09:43:58;;;;;;;37.55;23.02;;;9.70;99.90;;;;;;5058879;28;20202;-43
2023/02/23 09:46:58;;;;;;;35.42;23.27;;;9.70;99.90;;;;;;5059880;28;20025;-43
2023/02/23 09:49:26;;;;;;;39.53;24.42;;;9.80;99.90;;;;;;5060199;28;20649;-44
2023/02/23 09:51:57;;;;;;;52.17;30.55;;;9.80;99.90;;;;;;5059350;28;20025;-44
2023/02/23 09:54:28;;;;;;;49.80;30.00;;;9.80;99.90;;;;;;5059672;28;20033;-44
2023/02/23 09:56:57;;;;;;;50.35;29.92;;;9.80;99.90;;;;;;5059889;28;20020;-43
2023/02/23 09:59:24;;;;;;;47.22;28.05;;;9.80;99.90;;;;;;5058104;28;20020;-44
2023/02/23 10:01:55;;;;;;;45.63;28.05;;;9.80;99.90;;;;;;5058829;28;20460;-44
2023/02/23 10:04:41;;;;;;;45.30;28.00;;;9.80;99.90;;;;;;5058812;28;20123;-44
2023/02/23 10:07:38;;;;;;;43.22;25.77;;;9.80;99.90;;;;;;5039861;28;20476;-43
2023/02/23 10:10:36;;;;;;;44.22;26.17;;;9.90;99.90;;;;;;5059388;28;20024;-43
2023/02/23 10:13:24;;;;;;;41.08;24.88;;;9.90;99.90;;;;;;5059717;28;20112;-43
2023/02/23 10:16:21;;;;;;;46.00;26.83;;;9.90;99.90;;;;;;5058548;28;20035;-43
2023/02/23 10:19:18;;;;;;;43.17;24.00;;;9.90;99.90;;;;;;5059190;28;20483;-43
2023/02/23 10:21:52;;;;;;;35.95;21.95;;;9.90;99.90;;;;;;5028006;28;20037;-43
2023/02/23 10:24:35;;;;;;;38.35;22.92;;;9.90;99.90;;;;;;5044452;28;20025;-43
2023/02/23 10:27:09;;;;;;;;;;;9.90;99.90;;;;;;5044838;28;20091;-44
2023/02/23 10:29:47;;;;;;;49.65;29.73;;;9.90;99.90;;;;;;5043902;28;20042;-43
2023/02/23 10:32:21;;;;;;;52.25;30.58;;;9.80;99.90;;;;;;5059528;28;20033;-42
2023/02/23 10:34:52;;;;;;;49.38;28.98;;;9.80;99.90;;;;;;5054023;28;20025;-42
2023/02/23 10:37:18;;;;;;;51.42;31.73;;;9.80;99.90;;;;;;5042704;28;20142;-42
2023/02/23 10:39:44;;;;;;;46.10;27.42;;;9.70;99.90;;;;;;5043400;28;20044;-43
2023/02/23 10:42:16;;;;;;;44.60;26.95;;;9.70;99.90;;;;;;5059151;28;20033;-43
2023/02/23 10:44:44;;;;;;;51.67;30.60;;;9.80;99.90;;;;;;5058839;28;20060;-42
2023/02/23 10:47:19;;;;;;;47.58;28.70;;;9.80;99.90;;;;;;5059375;28;20024;-43
2023/02/23 10:49:54;;;;;;;48.70;27.50;;;9.80;99.90;;;;;;5058884;28;20027;-43
2023/02/23 10:52:28;;;;;;;39.80;24.45;;;9.80;99.90;;;;;;5058651;28;20127;-43
2023/02/23 10:54:54;;;;;;;36.78;23.00;;;9.90;99.90;;;;;;5058583;28;20095;-43
2023/02/23 10:57:21;;;;;;;39.58;24.98;;;9.90;99.90;;;;;;5048395;28;20669;-44
2023/02/23 11:00:05;;;;;;;47.53;27.33;;;9.90;99.90;;;;;;5059469;28;20471;-44
2023/02/23 11:02:32;;;;;;;45.90;26.92;;;9.90;99.90;;;;;;5049266;28;20083;-43
2023/02/23 11:04:59;;;;;;;41.20;24.65;;;9.90;99.90;;;;;;5058173;28;20447;-42
2023/02/23 11:07:31;;;;;;;42.55;24.50;;;9.90;99.90;;;;;;5059887;28;20040;-43
2023/02/23 11:09:58;;;;;;;36.83;22.48;;;9.90;99.90;;;;;;5059140;28;20134;-43
2023/02/23 11:12:40;;;;;;;37.33;22.13;;;10.00;99.90;;;;;;5055876;28;20024;-43
2023/02/23 11:15:33;;;;;;;34.15;21.17;;;10.00;99.90;;;;;;5059536;28;20052;-43
2023/02/23 11:18:03;;;;;;;34.53;21.35;;;10.00;99.90;;;;;;5041863;28;20365;-44
2023/02/23 11:20:37;;;;;;;35.45;21.23;;;10.00;99.90;;;;;;5062808;28;20029;-44
2023/02/23 11:23:22;;;;;;;43.95;24.25;;;10.00;99.90;;;;;;5062697;28;20139;-43
2023/02/23 11:25:50;;;;;;;41.88;23.08;;;10.00;99.90;;;;;;5062756;28;20008;-43
2023/02/23 11:28:42;;;;;;;45.33;24.88;;;10.10;99.90;;;;;;5063138;28;20037;-43
2023/02/23 11:31:28;;;;;;;42.58;23.60;;;10.10;99.90;;;;;;5058706;28;20510;-43
2023/02/23 11:33:54;;;;;;;38.65;22.98;;;10.10;99.90;;;;;;5062634;28;20397;-43
2023/02/23 11:36:23;;;;;;;37.50;21.90;;;10.10;99.90;;;;;;5062919;28;20123;-43
2023/02/23 11:39:04;;;;;;;38.90;21.67;;;10.20;99.90;;;;;;5061647;28;20115;-44
2023/02/23 11:41:33;;;;;;;38.75;21.58;;;10.10;99.90;;;;;;5062753;28;20029;-44
2023/02/23 11:44:01;;;;;;;36.15;20.52;;;10.20;99.90;;;;;;5062092;28;20538;-44
2023/02/23 11:46:28;;;;;;;40.03;21.48;;;10.20;99.90;;;;;;5062901;28;20032;-44
2023/02/23 11:49:00;;;;;;;36.45;20.77;;;10.20;99.90;;;;;;5062302;28;20017;-43
2023/02/23 11:51:30;;;;;;;32.90;20.15;;;10.20;99.90;;;;;;5062726;28;20028;-44
2023/02/23 11:53:56;;;;;;;38.38;21.40;;;10.20;99.90;;;;;;5061268;28;20032;-43
2023/02/23 11:56:24;;;;;;;35.90;20.25;;;10.20;99.90;;;;;;5062440;28;20519;-44
2023/02/23 11:58:57;;;;;;;38.97;21.67;;;10.10;99.90;;;;;;5060975;28;20046;-44
2023/02/23 12:01:36;;;;;;;41.92;21.23;;;10.20;99.90;;;;;;5061509;28;20042;-43
2023/02/23 12:04:02;;;;;;;36.70;21.02;;;10.10;99.90;;;;;;5061120;28;20027;-43
2023/02/23 12:06:35;;;;;;;34.75;20.15;;;10.10;99.90;;;;;;5062290;28;20108;-44
2023/02/23 12:09:28;;;;;;;41.42;23.58;;;10.20;99.90;;;;;;5061896;28;20038;-43
2023/02/23 12:12:05;;;;;;;38.30;21.90;;;10.20;99.90;;;;;;5061061;28;20028;-42
2023/02/23 12:14:35;;;;;;;40.15;21.35;;;10.20;99.90;;;;;;5057931;28;20040;-43
2023/02/23 12:17:10;;;;;;;36.03;19.98;;;10.20;99.90;;;;;;5062341;28;20036;-43
2023/02/23 12:19:40;;;;;;;34.58;18.92;;;10.30;99.90;;;;;;5060733;28;20075;-43
2023/02/23 12:22:25;;;;;;;38.22;19.98;;;10.30;99.90;;;;;;5060887;28;20040;-43
2023/02/23 12:25:13;;;;;;;35.53;20.17;;;10.40;99.90;;;;;;5058051;28;20264;-41
2023/02/23 12:27:55;;;;;;;36.80;19.90;;;10.50;99.90;;;;;;5059484;28;20026;-42
2023/02/23 12:30:35;;;;;;;40.93;22.63;;;10.50;99.90;;;;;;5061268;28;20033;-42
2023/02/23 12:33:10;;;;;;;36.08;21.75;;;10.40;99.90;;;;;;5061004;28;20032;-42
2023/02/23 12:35:51;;;;;;;38.25;22.27;;;10.30;99.90;;;;;;5060971;28;20040;-43
2023/02/23 12:38:32;;;;;;;34.33;20.35;;;10.20;99.90;;;;;;5062014;28;20028;-43
2023/02/23 12:41:20;;;;;;;33.80;19.15;;;10.10;99.90;;;;;;5050286;28;20391;-43
2023/02/23 12:43:50;;;;;;;35.25;19.83;;;10.10;99.90;;;;;;5059675;28;20028;-43
2023/02/23 12:46:28;;;;;;;38.15;21.00;;;10.10;99.90;;;;;;5061712;28;20601;-42
2023/02/23 12:49:12;;;;;;;37.80;21.23;;;10.10;99.90;;;;;;5059904;28;20067;-43
2023/02/23 12:51:43;;;;;;;32.03;17.15;;;10.10;99.90;;;;;;5060920;28;20031;-44
2023/02/23 12:54:11;;;;;;;31.77;18.05;;;10.10;99.90;;;;;;5060103;28;20025;-43
2023/02/23 12:57:01;;;;;;;26.13;16.10;;;10.00;99.90;;;;;;5049192;28;20032;-44
2023/02/23 12:59:48;;;;;;;22.42;13.10;;;10.00;99.90;;;;;;5045959;28;20093;-42
2023/02/23 13:02:29;;;;;;;18.23;11.30;;;10.00;99.90;;;;;;5045332;28;20637;-44
2023/02/23 13:05:11;;;;;;;24.33;13.88;;;10.00;99.90;;;;;;5046648;28;20017;-43
2023/02/23 13:07:49;;;;;;;22.13;12.10;;;10.00;99.90;;;;;;5043055;28;20116;-44
2023/02/23 13:10:26;;;;;;;20.55;12.10;;;10.00;99.90;;;;;;5048268;28;20082;-43
2023/02/23 13:12:58;;;;;;;20.00;11.18;;;10.10;99.90;;;;;;5061488;28;20086;-44
2023/02/23 13:15:43;;;;;;;19.40;10.23;;;10.10;99.90;;;;;;5060766;28;20040;-43
2023/02/23 13:18:20;;;;;;;16.52;10.10;;;10.10;99.90;;;;;;5059742;28;20043;-43
2023/02/23 13:20:50;;;;;;;16.60;10.18;;;10.10;99.90;;;;;;5059860;28;20029;-45
2023/02/23 13:23:27;;;;;;;19.25;10.70;;;10.00;99.90;;;;;;5060224;28;20044;-44
2023/02/23 13:25:59;;;;;;;18.00;11.77;;;10.00;99.90;;;;;;5059819;28;20162;-42
2023/02/23 13:28:37;;;;;;;17.90;10.38;;;9.90;99.90;;;;;;5060486;28;20021;-42
2023/02/23 13:31:11;;;;;;;17.92;10.98;;;9.80;99.90;;;;;;5059039;28;20478;-43
2023/02/23 13:33:38;;;;;;;18.02;10.07;;;9.80;99.90;;;;;;5060904;28;20035;-43
2023/02/23 13:36:04;;;;;;;13.88;8.40;;;9.80;99.90;;;;;;5060004;28;20028;-43
2023/02/23 13:38:44;;;;;;;17.00;9.88;;;9.80;99.90;;;;;;5059639;28;20233;-44
2023/02/23 13:41:39;;;;;;;17.38;9.75;;;9.90;99.90;;;;;;5053000;28;20025;-43
2023/02/23 13:44:08;;;;;;;15.75;8.63;;;10.00;99.90;;;;;;5051057;28;20049;-44
2023/02/23 13:46:49;;;;;;;14.10;8.88;;;10.00;99.90;;;;;;5059602;28;20123;-44
2023/02/23 13:49:37;;;;;;;13.95;8.68;;;10.00;99.90;;;;;;5041291;28;20036;-43
2023/02/23 13:52:28;;;;;;;16.33;9.25;;;10.10;99.90;;;;;;5050914;28;20115;-44
2023/02/23 13:55:04;;;;;;;14.23;9.10;;;10.10;99.90;;;;;;5040154;28;20041;-42
2023/02/23 13:57:30;;;;;;;14.85;9.30;;;10.20;99.90;;;;;;5057565;28;20086;-44
2023/02/23 13:59:57;;;;;;;13.80;8.40;;;10.30;99.90;;;;;;5059307;28;20382;-43
2023/02/23 14:02:36;;;;;;;13.23;8.57;;;10.40;99.90;;;;;;5059601;28;20033;-43
2023/02/23 14:05:30;;;;;;;14.63;10.00;;;10.50;99.90;;;;;;5039601;28;20040;-43
2023/02/23 14:08:06;;;;;;;15.93;9.55;;;10.50;99.90;;;;;;5057214;28;20042;-43
2023/02/23 14:10:38;;;;;;;14.88;9.18;;;10.60;99.90;;;;;;5059456;28;20033;-43
2023/02/23 14:13:14;;;;;;;13.85;8.82;;;10.70;99.90;;;;;;5053129;28;20036;-43
2023/02/23 14:15:42;;;;;;;14.30;8.95;;;10.70;99.90;;;;;;5039213;28;20645;-44
2023/02/23 14:18:19;;;;;;;15.98;9.32;;;10.70;99.90;;;;;;5053058;28;20219;-43
2023/02/23 14:20:57;;;;;;;14.02;9.32;;;10.70;99.90;;;;;;5039034;28;20028;-44
2023/02/23 14:23:27;;;;;;;13.55;9.15;;;10.70;99.90;;;;;;5051607;28;20072;-43
2023/02/23 14:26:10;;;;;;;16.60;11.23;;;10.80;99.90;;;;;;5038878;28;20047;-43
2023/02/23 14:28:38;;;;;;;15.32;10.05;;;10.70;99.90;;;;;;5052371;28;20032;-42
2023/02/23 14:31:13;;;;;;;18.60;10.32;;;10.60;99.90;;;;;;5055368;28;20027;-43
2023/02/23 14:33:41;;;;;;;20.58;11.52;;;10.50;99.90;;;;;;5058323;28;20498;-44
2023/02/23 14:36:27;;;;;;;22.35;12.93;;;10.50;99.90;;;;;;5059387;28;20084;-43
2023/02/23 14:38:56;;;;;;;19.33;12.35;;;10.40;99.90;;;;;;5058474;28;20440;-43
2023/02/23 14:41:27;;;;;;;18.15;11.00;;;10.40;99.90;;;;;;5055490;28;20036;-44
2023/02/23 14:44:13;;;;;;;20.50;11.65;;;10.30;99.90;;;;;;5059286;28;20120;-43
2023/02/23 14:46:53;;;;;;;23.55;12.52;;;10.30;99.90;;;;;;5058794;28;20135;-43
2023/02/23 14:49:21;;;;;;;18.98;11.82;;;10.30;99.90;;;;;;5058688;28;20027;-43
2023/02/23 14:51:51;;;;;;;23.55;13.25;;;10.20;99.90;;;;;;5062834;28;20029;-43
2023/02/23 14:54:33;;;;;;;23.63;13.20;;;10.20;99.90;;;;;;5062329;28;20020;-43
2023/02/23 14:57:05;;;;;;;19.85;11.98;;;10.20;99.90;;;;;;5062153;28;20131;-43
2023/02/23 14:59:41;;;;;;;19.40;11.87;;;10.20;99.90;;;;;;5063669;28;20028;-44
2023/02/23 15:02:18;;;;;;;19.10;11.38;;;10.20;99.90;;;;;;5063789;28;20040;-44
2023/02/23 15:04:44;;;;;;;17.33;10.88;;;10.20;99.90;;;;;;5062076;28;20021;-43
2023/02/23 15:07:29;;;;;;;19.33;11.75;;;10.30;99.90;;;;;;5063260;28;20024;-43
2023/02/23 15:09:57;;;;;;;18.38;12.05;;;10.20;99.90;;;;;;5062381;28;20063;-42
2023/02/23 15:12:27;;;;;;;21.42;13.30;;;10.20;99.90;;;;;;5063719;28;20039;-43
2023/02/23 15:14:57;;;;;;;21.38;11.57;;;10.20;99.90;;;;;;5062536;28;20071;-43
2023/02/23 15:17:25;;;;;;;17.23;10.85;;;10.10;99.90;;;;;;5042793;28;20774;-44
2023/02/23 15:19:56;;;;;;;17.52;10.73;;;10.20;99.90;;;;;;5057828;28;20120;-43
2023/02/23 15:22:31;;;;;;;16.35;10.20;;;10.10;99.90;;;;;;5063183;28;20059;-43